sensor_id;sensor_type;location;lat;lon;timestamp;temperature;humidity
21832;DHT22;11078;49.872;6.188;2022-07-19T00:02:01;17.70;1.00
21832;DHT22;11078;49.872;6.188;2022-07-19T00:04:27;17.60;1.00
21832;DHT22;11078;49.872;6.188;2022-07-19T00:06:53;17.50;1.00
21832;DHT22;11078;49.872;6.188;2022-07-19T00:09:21;17.40;1.00
21832;DHT22;11078;49.872;6.188;2022-07-19T00:11:47;17.40;1.00
21832;DHT22;11078;49.872;6.188;2022-07-19T00:14:13;17.30;1.00
21832;DHT22;11078;49.872;6.188;2022-07-19T00:16:39;17.30;1.00
21832;DHT22;11078;49.872;6.188;2022-07-19T00:19:05;17.20;1.00
21832;DHT22;11078;49.872;6.188;2022-07-19T00:21:31;17.10;1.10
21832;DHT22;11078;49.872;6.188;2022-07-19T00:23:57;17.10;1.20
21832;DHT22;11078;49.872;6.188;2022-07-19T00:26:27;17.10;1.30
21832;DHT22;11078;49.872;6.188;2022-07-19T00:28:54;17.10;1.40
21832;DHT22;11078;49.872;6.188;2022-07-19T00:31:22;17.00;1.30
21832;DHT22;11078;49.872;6.188;2022-07-19T00:33:48;17.00;1.60
21832;DHT22;11078;49.872;6.188;2022-07-19T00:36:14;17.00;1.50
21832;DHT22;11078;49.872;6.188;2022-07-19T00:38:39;16.90;1.60
21832;DHT22;11078;49.872;6.188;2022-07-19T00:41:06;16.80;1.70
21832;DHT22;11078;49.872;6.188;2022-07-19T00:43:32;16.80;2.00
21832;DHT22;11078;49.872;6.188;2022-07-19T00:45:58;16.80;1.90
21832;DHT22;11078;49.872;6.188;2022-07-19T00:48:24;16.80;1.90
21832;DHT22;11078;49.872;6.188;2022-07-19T00:50:51;16.70;2.00
21832;DHT22;11078;49.872;6.188;2022-07-19T00:53:18;16.70;2.00
21832;DHT22;11078;49.872;6.188;2022-07-19T00:55:45;16.60;2.40
21832;DHT22;11078;49.872;6.188;2022-07-19T00:58:11;16.60;2.20
21832;DHT22;11078;49.872;6.188;2022-07-19T01:00:40;16.60;2.30
21832;DHT22;11078;49.872;6.188;2022-07-19T01:03:07;16.50;2.50
21832;DHT22;11078;49.872;6.188;2022-07-19T01:05:34;16.50;2.80
21832;DHT22;11078;49.872;6.188;2022-07-19T01:08:01;16.40;2.50
21832;DHT22;11078;49.872;6.188;2022-07-19T01:10:27;16.40;2.60
21832;DHT22;11078;49.872;6.188;2022-07-19T01:12:54;16.30;2.70
21832;DHT22;11078;49.872;6.188;2022-07-19T01:15:24;16.30;2.80
21832;DHT22;11078;49.872;6.188;2022-07-19T01:17:52;16.20;3.10
21832;DHT22;11078;49.872;6.188;2022-07-19T01:20:20;16.20;3.00
21832;DHT22;11078;49.872;6.188;2022-07-19T01:22:46;16.20;3.30
21832;DHT22;11078;49.872;6.188;2022-07-19T01:25:13;16.10;3.00
21832;DHT22;11078;49.872;6.188;2022-07-19T01:27:41;16.00;3.00
21832;DHT22;11078;49.872;6.188;2022-07-19T01:30:23;16.00;3.30
21832;DHT22;11078;49.872;6.188;2022-07-19T01:32:51;15.90;7.30
21832;DHT22;11078;49.872;6.188;2022-07-19T01:35:17;15.90;3.30
21832;DHT22;11078;49.872;6.188;2022-07-19T01:37:43;15.90;3.40
21832;DHT22;11078;49.872;6.188;2022-07-19T01:40:11;15.80;3.40
21832;DHT22;11078;49.872;6.188;2022-07-19T01:42:38;15.80;3.90
21832;DHT22;11078;49.872;6.188;2022-07-19T01:45:06;15.80;3.60
21832;DHT22;11078;49.872;6.188;2022-07-19T01:47:33;15.70;3.80
21832;DHT22;11078;49.872;6.188;2022-07-19T01:49:59;15.70;3.80
21832;DHT22;11078;49.872;6.188;2022-07-19T01:52:24;15.60;3.80
21832;DHT22;11078;49.872;6.188;2022-07-19T01:54:50;15.60;3.80
21832;DHT22;11078;49.872;6.188;2022-07-19T01:57:16;15.60;3.90
21832;DHT22;11078;49.872;6.188;2022-07-19T01:59:42;15.50;4.00
21832;DHT22;11078;49.872;6.188;2022-07-19T02:02:08;15.50;4.10
21832;DHT22;11078;49.872;6.188;2022-07-19T02:04:34;15.40;4.20
21832;DHT22;11078;49.872;6.188;2022-07-19T02:07:00;15.40;4.20
21832;DHT22;11078;49.872;6.188;2022-07-19T02:09:26;15.40;4.20
21832;DHT22;11078;49.872;6.188;2022-07-19T02:11:52;15.40;4.20
21832;DHT22;11078;49.872;6.188;2022-07-19T02:14:18;15.30;4.30
21832;DHT22;11078;49.872;6.188;2022-07-19T02:16:44;15.30;4.30
21832;DHT22;11078;49.872;6.188;2022-07-19T02:19:11;15.20;4.30
21832;DHT22;11078;49.872;6.188;2022-07-19T02:21:37;15.20;4.50
21832;DHT22;11078;49.872;6.188;2022-07-19T02:24:05;15.20;4.60
21832;DHT22;11078;49.872;6.188;2022-07-19T02:26:33;15.20;4.60
21832;DHT22;11078;49.872;6.188;2022-07-19T02:28:59;15.10;4.70
21832;DHT22;11078;49.872;6.188;2022-07-19T02:31:25;15.10;4.70
21832;DHT22;11078;49.872;6.188;2022-07-19T02:33:51;15.10;4.80
21832;DHT22;11078;49.872;6.188;2022-07-19T02:36:17;15.00;4.90
21832;DHT22;11078;49.872;6.188;2022-07-19T02:38:43;15.00;4.90
21832;DHT22;11078;49.872;6.188;2022-07-19T02:41:10;15.00;5.00
21832;DHT22;11078;49.872;6.188;2022-07-19T02:43:35;15.00;5.00
21832;DHT22;11078;49.872;6.188;2022-07-19T02:46:02;14.90;5.10
21832;DHT22;11078;49.872;6.188;2022-07-19T02:48:27;14.90;5.10
21832;DHT22;11078;49.872;6.188;2022-07-19T02:50:53;14.90;5.10
21832;DHT22;11078;49.872;6.188;2022-07-19T02:53:19;14.80;5.10
21832;DHT22;11078;49.872;6.188;2022-07-19T02:55:45;14.80;5.30
21832;DHT22;11078;49.872;6.188;2022-07-19T02:58:11;14.70;5.90
21832;DHT22;11078;49.872;6.188;2022-07-19T03:00:37;14.70;5.40
21832;DHT22;11078;49.872;6.188;2022-07-19T03:03:03;14.60;5.50
21832;DHT22;11078;49.872;6.188;2022-07-19T03:05:45;14.70;5.60
21832;DHT22;11078;49.872;6.188;2022-07-19T03:08:11;14.60;5.60
21832;DHT22;11078;49.872;6.188;2022-07-19T03:10:37;14.50;5.60
21832;DHT22;11078;49.872;6.188;2022-07-19T03:13:04;14.50;5.80
21832;DHT22;11078;49.872;6.188;2022-07-19T03:15:30;14.50;5.90
21832;DHT22;11078;49.872;6.188;2022-07-19T03:17:56;14.50;6.00
21832;DHT22;11078;49.872;6.188;2022-07-19T03:20:22;14.50;6.00
21832;DHT22;11078;49.872;6.188;2022-07-19T03:22:48;14.40;6.00
21832;DHT22;11078;49.872;6.188;2022-07-19T03:25:14;14.40;6.00
21832;DHT22;11078;49.872;6.188;2022-07-19T03:27:40;14.40;6.00
21832;DHT22;11078;49.872;6.188;2022-07-19T03:30:07;14.40;6.10
21832;DHT22;11078;49.872;6.188;2022-07-19T03:32:33;14.30;6.10
21832;DHT22;11078;49.872;6.188;2022-07-19T03:34:59;14.30;6.10
21832;DHT22;11078;49.872;6.188;2022-07-19T03:37:25;14.20;6.20
21832;DHT22;11078;49.872;6.188;2022-07-19T03:39:51;14.20;6.30
21832;DHT22;11078;49.872;6.188;2022-07-19T03:42:16;14.10;6.30
21832;DHT22;11078;49.872;6.188;2022-07-19T03:44:42;14.10;6.30
21832;DHT22;11078;49.872;6.188;2022-07-19T03:47:08;14.10;6.50
21832;DHT22;11078;49.872;6.188;2022-07-19T03:49:34;14.10;6.60
21832;DHT22;11078;49.872;6.188;2022-07-19T03:52:00;14.10;6.60
21832;DHT22;11078;49.872;6.188;2022-07-19T03:54:26;14.10;6.70
21832;DHT22;11078;49.872;6.188;2022-07-19T03:56:52;14.00;6.70
21832;DHT22;11078;49.872;6.188;2022-07-19T03:59:18;14.00;6.70
21832;DHT22;11078;49.872;6.188;2022-07-19T04:01:44;14.00;6.70
21832;DHT22;11078;49.872;6.188;2022-07-19T04:04:10;14.00;6.70
21832;DHT22;11078;49.872;6.188;2022-07-19T04:06:36;14.00;6.80
21832;DHT22;11078;49.872;6.188;2022-07-19T04:09:02;13.90;6.90
21832;DHT22;11078;49.872;6.188;2022-07-19T04:11:28;13.90;6.90
21832;DHT22;11078;49.872;6.188;2022-07-19T04:13:54;13.90;7.00
21832;DHT22;11078;49.872;6.188;2022-07-19T04:16:20;13.90;7.00
21832;DHT22;11078;49.872;6.188;2022-07-19T04:18:46;13.90;6.90
21832;DHT22;11078;49.872;6.188;2022-07-19T04:21:12;13.90;6.90
21832;DHT22;11078;49.872;6.188;2022-07-19T04:23:37;13.90;6.90
21832;DHT22;11078;49.872;6.188;2022-07-19T04:26:03;14.00;7.10
21832;DHT22;11078;49.872;6.188;2022-07-19T04:28:29;14.00;7.10
21832;DHT22;11078;49.872;6.188;2022-07-19T04:30:55;14.00;7.10
21832;DHT22;11078;49.872;6.188;2022-07-19T04:33:21;13.90;7.30
21832;DHT22;11078;49.872;6.188;2022-07-19T04:35:47;14.00;7.30
21832;DHT22;11078;49.872;6.188;2022-07-19T04:38:13;14.00;7.20
21832;DHT22;11078;49.872;6.188;2022-07-19T04:40:39;14.00;7.40
21832;DHT22;11078;49.872;6.188;2022-07-19T04:43:06;14.10;7.50
21832;DHT22;11078;49.872;6.188;2022-07-19T04:45:32;14.10;7.50
21832;DHT22;11078;49.872;6.188;2022-07-19T04:47:58;14.10;7.50
21832;DHT22;11078;49.872;6.188;2022-07-19T04:50:24;14.20;7.50
21832;DHT22;11078;49.872;6.188;2022-07-19T04:52:50;14.20;7.50
21832;DHT22;11078;49.872;6.188;2022-07-19T04:55:16;14.30;7.50
21832;DHT22;11078;49.872;6.188;2022-07-19T04:57:42;14.30;7.50
21832;DHT22;11078;49.872;6.188;2022-07-19T05:00:09;14.40;7.50
21832;DHT22;11078;49.872;6.188;2022-07-19T05:02:37;14.40;7.60
21832;DHT22;11078;49.872;6.188;2022-07-19T05:05:04;14.50;7.60
21832;DHT22;11078;49.872;6.188;2022-07-19T05:07:30;14.50;7.50
21832;DHT22;11078;49.872;6.188;2022-07-19T05:09:56;14.60;7.50
21832;DHT22;11078;49.872;6.188;2022-07-19T05:12:22;14.60;7.40
21832;DHT22;11078;49.872;6.188;2022-07-19T05:14:48;14.70;7.40
21832;DHT22;11078;49.872;6.188;2022-07-19T05:17:14;14.70;7.40
21832;DHT22;11078;49.872;6.188;2022-07-19T05:19:41;14.80;7.40
21832;DHT22;11078;49.872;6.188;2022-07-19T05:22:07;15.00;7.40
21832;DHT22;11078;49.872;6.188;2022-07-19T05:24:33;15.20;7.30
21832;DHT22;11078;49.872;6.188;2022-07-19T05:26:59;15.70;7.00
21832;DHT22;11078;49.872;6.188;2022-07-19T05:29:25;16.50;6.10
21832;DHT22;11078;49.872;6.188;2022-07-19T05:31:51;17.50;4.90
21832;DHT22;11078;49.872;6.188;2022-07-19T05:34:17;18.50;3.50
21832;DHT22;11078;49.872;6.188;2022-07-19T05:36:43;19.50;2.20
21832;DHT22;11078;49.872;6.188;2022-07-19T05:39:09;20.40;1.00
21832;DHT22;11078;49.872;6.188;2022-07-19T05:41:35;21.20;1.00
21832;DHT22;11078;49.872;6.188;2022-07-19T05:44:01;22.00;1.00
21832;DHT22;11078;49.872;6.188;2022-07-19T05:46:27;22.70;1.00
21832;DHT22;11078;49.872;6.188;2022-07-19T05:48:53;23.30;1.00
21832;DHT22;11078;49.872;6.188;2022-07-19T05:51:19;23.90;1.00
21832;DHT22;11078;49.872;6.188;2022-07-19T05:53:45;24.40;1.00
21832;DHT22;11078;49.872;6.188;2022-07-19T05:56:11;25.00;1.00
21832;DHT22;11078;49.872;6.188;2022-07-19T05:58:37;25.50;1.00
21832;DHT22;11078;49.872;6.188;2022-07-19T06:01:04;26.00;1.00
21832;DHT22;11078;49.872;6.188;2022-07-19T06:03:47;26.60;1.00
21832;DHT22;11078;49.872;6.188;2022-07-19T06:06:14;27.00;1.00
21832;DHT22;11078;49.872;6.188;2022-07-19T06:08:41;27.50;1.00
21832;DHT22;11078;49.872;6.188;2022-07-19T06:11:07;27.90;1.00
21832;DHT22;11078;49.872;6.188;2022-07-19T06:13:33;28.20;1.00
21832;DHT22;11078;49.872;6.188;2022-07-19T06:15:59;28.50;1.00
21832;DHT22;11078;49.872;6.188;2022-07-19T06:18:25;28.80;1.00
21832;DHT22;11078;49.872;6.188;2022-07-19T06:20:51;29.20;1.00
21832;DHT22;11078;49.872;6.188;2022-07-19T06:23:17;29.50;1.00
21832;DHT22;11078;49.872;6.188;2022-07-19T06:25:43;29.80;1.00
21832;DHT22;11078;49.872;6.188;2022-07-19T06:28:09;30.10;1.00
21832;DHT22;11078;49.872;6.188;2022-07-19T06:30:35;30.30;1.00
21832;DHT22;11078;49.872;6.188;2022-07-19T06:33:01;30.70;1.00
21832;DHT22;11078;49.872;6.188;2022-07-19T06:35:26;30.90;1.00
21832;DHT22;11078;49.872;6.188;2022-07-19T06:37:52;31.20;1.00
21832;DHT22;11078;49.872;6.188;2022-07-19T06:40:19;31.50;1.00
21832;DHT22;11078;49.872;6.188;2022-07-19T06:42:44;31.70;1.00
21832;DHT22;11078;49.872;6.188;2022-07-19T06:45:11;32.10;1.00
21832;DHT22;11078;49.872;6.188;2022-07-19T06:47:37;32.30;1.00
21832;DHT22;11078;49.872;6.188;2022-07-19T06:50:03;32.60;1.00
21832;DHT22;11078;49.872;6.188;2022-07-19T06:52:29;32.90;1.00
21832;DHT22;11078;49.872;6.188;2022-07-19T06:54:55;33.10;1.00
21832;DHT22;11078;49.872;6.188;2022-07-19T06:57:21;33.30;1.00
21832;DHT22;11078;49.872;6.188;2022-07-19T06:59:47;33.50;1.00
21832;DHT22;11078;49.872;6.188;2022-07-19T07:02:13;33.70;1.00
21832;DHT22;11078;49.872;6.188;2022-07-19T07:04:39;33.90;1.00
21832;DHT22;11078;49.872;6.188;2022-07-19T07:07:05;34.10;1.00
21832;DHT22;11078;49.872;6.188;2022-07-19T07:09:31;34.20;1.00
21832;DHT22;11078;49.872;6.188;2022-07-19T07:11:57;34.30;1.00
21832;DHT22;11078;49.872;6.188;2022-07-19T07:14:23;34.40;1.00
21832;DHT22;11078;49.872;6.188;2022-07-19T07:16:49;34.50;1.00
21832;DHT22;11078;49.872;6.188;2022-07-19T07:19:15;34.50;1.00
21832;DHT22;11078;49.872;6.188;2022-07-19T07:21:41;34.60;1.00
21832;DHT22;11078;49.872;6.188;2022-07-19T07:24:07;34.40;1.00
21832;DHT22;11078;49.872;6.188;2022-07-19T07:26:33;34.20;1.00
21832;DHT22;11078;49.872;6.188;2022-07-19T07:29:00;34.20;1.00
21832;DHT22;11078;49.872;6.188;2022-07-19T07:31:26;34.30;1.00
21832;DHT22;11078;49.872;6.188;2022-07-19T07:33:52;34.30;1.00
21832;DHT22;11078;49.872;6.188;2022-07-19T07:36:18;34.40;1.00
21832;DHT22;11078;49.872;6.188;2022-07-19T07:38:45;34.50;1.00
21832;DHT22;11078;49.872;6.188;2022-07-19T07:41:11;34.60;1.00
21832;DHT22;11078;49.872;6.188;2022-07-19T07:43:37;34.60;1.00
21832;DHT22;11078;49.872;6.188;2022-07-19T07:46:03;34.80;1.00
21832;DHT22;11078;49.872;6.188;2022-07-19T07:48:28;35.00;1.00
21832;DHT22;11078;49.872;6.188;2022-07-19T07:50:54;35.10;1.00
21832;DHT22;11078;49.872;6.188;2022-07-19T07:53:20;35.20;1.00
21832;DHT22;11078;49.872;6.188;2022-07-19T07:55:46;35.20;1.00
21832;DHT22;11078;49.872;6.188;2022-07-19T07:58:12;35.30;1.00
21832;DHT22;11078;49.872;6.188;2022-07-19T08:00:40;35.50;1.00
21832;DHT22;11078;49.872;6.188;2022-07-19T08:03:07;35.50;1.00
21832;DHT22;11078;49.872;6.188;2022-07-19T08:05:33;35.70;1.00
21832;DHT22;11078;49.872;6.188;2022-07-19T08:08:00;35.90;1.00
21832;DHT22;11078;49.872;6.188;2022-07-19T08:10:28;36.00;1.00
21832;DHT22;11078;49.872;6.188;2022-07-19T08:12:56;35.90;1.00
21832;DHT22;11078;49.872;6.188;2022-07-19T08:15:22;35.90;1.00
21832;DHT22;11078;49.872;6.188;2022-07-19T08:17:48;36.20;1.00
21832;DHT22;11078;49.872;6.188;2022-07-19T08:20:14;36.50;1.00
21832;DHT22;11078;49.872;6.188;2022-07-19T08:22:41;36.80;1.00
21832;DHT22;11078;49.872;6.188;2022-07-19T08:25:08;37.10;1.00
21832;DHT22;11078;49.872;6.188;2022-07-19T08:27:34;37.30;1.00
21832;DHT22;11078;49.872;6.188;2022-07-19T08:30:01;37.50;1.00
21832;DHT22;11078;49.872;6.188;2022-07-19T08:32:27;37.50;1.00
21832;DHT22;11078;49.872;6.188;2022-07-19T08:34:53;37.60;1.00
21832;DHT22;11078;49.872;6.188;2022-07-19T08:37:19;37.50;1.00
21832;DHT22;11078;49.872;6.188;2022-07-19T08:39:45;37.50;1.00
21832;DHT22;11078;49.872;6.188;2022-07-19T08:42:11;37.70;1.00
21832;DHT22;11078;49.872;6.188;2022-07-19T08:44:37;37.90;1.00
21832;DHT22;11078;49.872;6.188;2022-07-19T08:47:05;38.00;1.00
21832;DHT22;11078;49.872;6.188;2022-07-19T08:49:32;38.10;1.00
21832;DHT22;11078;49.872;6.188;2022-07-19T08:51:58;38.10;1.00
21832;DHT22;11078;49.872;6.188;2022-07-19T08:54:24;38.20;1.00
21832;DHT22;11078;49.872;6.188;2022-07-19T08:56:50;38.20;1.00
21832;DHT22;11078;49.872;6.188;2022-07-19T08:59:32;38.10;1.00
21832;DHT22;11078;49.872;6.188;2022-07-19T09:01:58;38.10;1.00
21832;DHT22;11078;49.872;6.188;2022-07-19T09:04:24;38.30;1.00
21832;DHT22;11078;49.872;6.188;2022-07-19T09:06:55;38.50;1.00
21832;DHT22;11078;49.872;6.188;2022-07-19T09:09:25;38.50;1.00
21832;DHT22;11078;49.872;6.188;2022-07-19T09:11:53;38.50;1.00
21832;DHT22;11078;49.872;6.188;2022-07-19T09:14:24;38.60;1.00
21832;DHT22;11078;49.872;6.188;2022-07-19T09:16:58;38.60;1.00
21832;DHT22;11078;49.872;6.188;2022-07-19T09:19:32;38.70;1.00
21832;DHT22;11078;49.872;6.188;2022-07-19T09:22:03;38.70;1.00
21832;DHT22;11078;49.872;6.188;2022-07-19T09:24:32;38.80;1.00
21832;DHT22;11078;49.872;6.188;2022-07-19T09:27:01;38.90;1.00
21832;DHT22;11078;49.872;6.188;2022-07-19T09:29:28;39.20;1.00
21832;DHT22;11078;49.872;6.188;2022-07-19T09:32:08;39.40;1.00
21832;DHT22;11078;49.872;6.188;2022-07-19T09:34:38;39.60;1.00
21832;DHT22;11078;49.872;6.188;2022-07-19T09:37:16;39.60;1.00
21832;DHT22;11078;49.872;6.188;2022-07-19T09:39:43;39.70;1.00
21832;DHT22;11078;49.872;6.188;2022-07-19T09:42:15;39.70;1.00
21832;DHT22;11078;49.872;6.188;2022-07-19T09:44:41;39.70;1.00
21832;DHT22;11078;49.872;6.188;2022-07-19T09:47:08;39.70;1.00
21832;DHT22;11078;49.872;6.188;2022-07-19T09:49:35;39.80;1.00
21832;DHT22;11078;49.872;6.188;2022-07-19T09:52:02;39.90;1.00
21832;DHT22;11078;49.872;6.188;2022-07-19T09:54:29;40.00;1.00
21832;DHT22;11078;49.872;6.188;2022-07-19T09:56:58;40.10;1.00
21832;DHT22;11078;49.872;6.188;2022-07-19T09:59:25;40.20;1.00
21832;DHT22;11078;49.872;6.188;2022-07-19T10:01:54;40.20;1.00
21832;DHT22;11078;49.872;6.188;2022-07-19T10:04:23;40.20;1.00
21832;DHT22;11078;49.872;6.188;2022-07-19T10:06:50;40.20;1.00
21832;DHT22;11078;49.872;6.188;2022-07-19T10:09:19;40.20;1.00
21832;DHT22;11078;49.872;6.188;2022-07-19T10:11:46;40.30;1.00
21832;DHT22;11078;49.872;6.188;2022-07-19T10:14:12;40.40;1.00
21832;DHT22;11078;49.872;6.188;2022-07-19T10:19:39;40.50;1.00
21832;DHT22;11078;49.872;6.188;2022-07-19T10:22:10;40.50;1.00
21832;DHT22;11078;49.872;6.188;2022-07-19T10:24:53;40.50;1.00
21832;DHT22;11078;49.872;6.188;2022-07-19T10:27:41;40.60;1.00
21832;DHT22;11078;49.872;6.188;2022-07-19T10:30:18;40.60;1.00
21832;DHT22;11078;49.872;6.188;2022-07-19T10:32:47;40.60;1.00
21832;DHT22;11078;49.872;6.188;2022-07-19T10:35:27;40.60;1.00
21832;DHT22;11078;49.872;6.188;2022-07-19T10:38:08;40.70;1.00
21832;DHT22;11078;49.872;6.188;2022-07-19T10:43:22;41.10;1.00
21832;DHT22;11078;49.872;6.188;2022-07-19T10:46:10;41.20;1.00
21832;DHT22;11078;49.872;6.188;2022-07-19T10:48:39;41.20;1.00
21832;DHT22;11078;49.872;6.188;2022-07-19T10:51:07;41.10;1.00
21832;DHT22;11078;49.872;6.188;2022-07-19T10:53:53;41.00;1.00
21832;DHT22;11078;49.872;6.188;2022-07-19T10:56:24;41.10;1.00
21832;DHT22;11078;49.872;6.188;2022-07-19T10:58:53;41.20;1.00
21832;DHT22;11078;49.872;6.188;2022-07-19T11:01:22;41.30;1.00
21832;DHT22;11078;49.872;6.188;2022-07-19T11:03:49;41.30;1.00
21832;DHT22;11078;49.872;6.188;2022-07-19T11:06:22;41.40;1.00
21832;DHT22;11078;49.872;6.188;2022-07-19T11:08:53;41.40;1.00
21832;DHT22;11078;49.872;6.188;2022-07-19T11:11:19;41.40;1.00
21832;DHT22;11078;49.872;6.188;2022-07-19T11:13:48;41.40;1.00
21832;DHT22;11078;49.872;6.188;2022-07-19T11:16:15;41.40;1.00
21832;DHT22;11078;49.872;6.188;2022-07-19T11:18:41;41.40;1.00
21832;DHT22;11078;49.872;6.188;2022-07-19T11:21:12;41.50;1.00
21832;DHT22;11078;49.872;6.188;2022-07-19T11:23:39;41.60;1.00
21832;DHT22;11078;49.872;6.188;2022-07-19T11:26:15;41.70;1.00
21832;DHT22;11078;49.872;6.188;2022-07-19T11:28:45;41.70;1.00
21832;DHT22;11078;49.872;6.188;2022-07-19T11:31:17;41.80;1.00
21832;DHT22;11078;49.872;6.188;2022-07-19T11:33:46;41.80;1.00
21832;DHT22;11078;49.872;6.188;2022-07-19T11:36:13;41.80;1.00
21832;DHT22;11078;49.872;6.188;2022-07-19T11:38:44;41.70;1.00
21832;DHT22;11078;49.872;6.188;2022-07-19T11:41:15;41.80;1.00
21832;DHT22;11078;49.872;6.188;2022-07-19T11:43:44;41.70;1.00
21832;DHT22;11078;49.872;6.188;2022-07-19T11:46:10;41.60;1.00
21832;DHT22;11078;49.872;6.188;2022-07-19T11:48:40;41.60;1.00
21832;DHT22;11078;49.872;6.188;2022-07-19T11:51:09;41.60;1.00
21832;DHT22;11078;49.872;6.188;2022-07-19T11:53:38;41.70;1.00
21832;DHT22;11078;49.872;6.188;2022-07-19T11:56:05;41.80;1.00
21832;DHT22;11078;49.872;6.188;2022-07-19T11:58:32;41.80;1.00
21832;DHT22;11078;49.872;6.188;2022-07-19T12:01:02;41.80;1.00
21832;DHT22;11078;49.872;6.188;2022-07-19T12:03:29;41.70;1.00
21832;DHT22;11078;49.872;6.188;2022-07-19T12:05:57;41.60;1.00
21832;DHT22;11078;49.872;6.188;2022-07-19T12:08:41;41.60;1.00
21832;DHT22;11078;49.872;6.188;2022-07-19T12:11:24;41.40;1.00
21832;DHT22;11078;49.872;6.188;2022-07-19T12:13:51;41.60;1.00
21832;DHT22;11078;49.872;6.188;2022-07-19T12:16:18;41.50;1.00
21832;DHT22;11078;49.872;6.188;2022-07-19T12:18:51;41.50;1.00
21832;DHT22;11078;49.872;6.188;2022-07-19T12:21:38;41.60;1.00
21832;DHT22;11078;49.872;6.188;2022-07-19T12:24:23;41.60;1.00
21832;DHT22;11078;49.872;6.188;2022-07-19T12:26:56;41.50;1.00
21832;DHT22;11078;49.872;6.188;2022-07-19T12:29:29;41.40;1.00
21832;DHT22;11078;49.872;6.188;2022-07-19T12:31:58;41.40;1.00
21832;DHT22;11078;49.872;6.188;2022-07-19T12:34:25;41.60;1.00
21832;DHT22;11078;49.872;6.188;2022-07-19T12:36:51;41.60;1.00
21832;DHT22;11078;49.872;6.188;2022-07-19T12:39:21;41.70;1.00
21832;DHT22;11078;49.872;6.188;2022-07-19T12:42:04;41.80;1.00
21832;DHT22;11078;49.872;6.188;2022-07-19T12:44:32;41.60;1.00
21832;DHT22;11078;49.872;6.188;2022-07-19T12:46:58;41.80;1.00
21832;DHT22;11078;49.872;6.188;2022-07-19T12:49:24;41.80;1.00
21832;DHT22;11078;49.872;6.188;2022-07-19T12:51:52;41.80;1.00
21832;DHT22;11078;49.872;6.188;2022-07-19T12:54:18;41.60;1.00
21832;DHT22;11078;49.872;6.188;2022-07-19T12:56:44;41.60;1.00
21832;DHT22;11078;49.872;6.188;2022-07-19T12:59:10;41.60;1.00
21832;DHT22;11078;49.872;6.188;2022-07-19T13:01:52;41.60;1.00
21832;DHT22;11078;49.872;6.188;2022-07-19T13:04:18;41.60;1.00
21832;DHT22;11078;49.872;6.188;2022-07-19T13:06:44;41.50;1.00
21832;DHT22;11078;49.872;6.188;2022-07-19T13:09:10;41.40;1.00
21832;DHT22;11078;49.872;6.188;2022-07-19T13:11:36;41.40;1.00
21832;DHT22;11078;49.872;6.188;2022-07-19T13:14:02;41.60;1.00
21832;DHT22;11078;49.872;6.188;2022-07-19T13:16:32;41.60;1.00
21832;DHT22;11078;49.872;6.188;2022-07-19T13:18:58;41.60;1.00
21832;DHT22;11078;49.872;6.188;2022-07-19T13:21:24;41.60;1.00
21832;DHT22;11078;49.872;6.188;2022-07-19T13:23:50;41.60;1.00
21832;DHT22;11078;49.872;6.188;2022-07-19T13:26:16;41.60;1.00
21832;DHT22;11078;49.872;6.188;2022-07-19T13:28:41;41.60;1.00
21832;DHT22;11078;49.872;6.188;2022-07-19T13:31:08;41.60;1.00
21832;DHT22;11078;49.872;6.188;2022-07-19T13:33:34;41.50;1.00
21832;DHT22;11078;49.872;6.188;2022-07-19T13:36:00;41.50;1.00
21832;DHT22;11078;49.872;6.188;2022-07-19T13:38:26;41.50;1.00
21832;DHT22;11078;49.872;6.188;2022-07-19T13:40:52;41.50;1.00
21832;DHT22;11078;49.872;6.188;2022-07-19T13:43:18;41.60;1.00
21832;DHT22;11078;49.872;6.188;2022-07-19T13:45:44;41.60;1.00
21832;DHT22;11078;49.872;6.188;2022-07-19T13:48:10;41.60;1.00
21832;DHT22;11078;49.872;6.188;2022-07-19T13:50:37;41.80;1.00
21832;DHT22;11078;49.872;6.188;2022-07-19T13:53:03;41.80;1.00
21832;DHT22;11078;49.872;6.188;2022-07-19T13:55:29;41.80;1.00
21832;DHT22;11078;49.872;6.188;2022-07-19T13:57:55;41.80;1.00
21832;DHT22;11078;49.872;6.188;2022-07-19T14:00:21;41.70;1.00
21832;DHT22;11078;49.872;6.188;2022-07-19T14:02:47;41.80;1.00
21832;DHT22;11078;49.872;6.188;2022-07-19T14:05:14;41.70;1.00
21832;DHT22;11078;49.872;6.188;2022-07-19T14:07:41;41.70;1.00
21832;DHT22;11078;49.872;6.188;2022-07-19T14:10:08;41.70;1.00
21832;DHT22;11078;49.872;6.188;2022-07-19T14:12:34;41.60;1.00
21832;DHT22;11078;49.872;6.188;2022-07-19T14:15:00;41.70;1.00
21832;DHT22;11078;49.872;6.188;2022-07-19T14:17:26;41.70;1.00
21832;DHT22;11078;49.872;6.188;2022-07-19T14:19:52;41.70;1.00
21832;DHT22;11078;49.872;6.188;2022-07-19T14:22:18;41.70;1.00
21832;DHT22;11078;49.872;6.188;2022-07-19T14:24:44;41.70;1.00
21832;DHT22;11078;49.872;6.188;2022-07-19T14:27:10;41.70;1.00
21832;DHT22;11078;49.872;6.188;2022-07-19T14:29:37;41.80;1.00
21832;DHT22;11078;49.872;6.188;2022-07-19T14:32:03;41.70;1.00
21832;DHT22;11078;49.872;6.188;2022-07-19T14:34:29;41.60;1.00
21832;DHT22;11078;49.872;6.188;2022-07-19T14:36:55;41.60;1.00
21832;DHT22;11078;49.872;6.188;2022-07-19T14:39:21;41.60;1.00
21832;DHT22;11078;49.872;6.188;2022-07-19T14:41:47;41.60;1.00
21832;DHT22;11078;49.872;6.188;2022-07-19T14:44:12;41.40;1.00
21832;DHT22;11078;49.872;6.188;2022-07-19T14:46:38;41.40;1.00
21832;DHT22;11078;49.872;6.188;2022-07-19T14:49:04;41.30;1.00
21832;DHT22;11078;49.872;6.188;2022-07-19T14:51:30;41.20;1.00
21832;DHT22;11078;49.872;6.188;2022-07-19T14:53:57;41.20;1.00
21832;DHT22;11078;49.872;6.188;2022-07-19T14:56:25;41.20;1.00
21832;DHT22;11078;49.872;6.188;2022-07-19T14:58:51;41.30;1.00
21832;DHT22;11078;49.872;6.188;2022-07-19T15:01:17;41.30;1.00
21832;DHT22;11078;49.872;6.188;2022-07-19T15:03:45;41.40;1.00
21832;DHT22;11078;49.872;6.188;2022-07-19T15:06:11;41.40;1.00
21832;DHT22;11078;49.872;6.188;2022-07-19T15:08:37;41.30;1.00
21832;DHT22;11078;49.872;6.188;2022-07-19T15:11:03;41.30;1.00
21832;DHT22;11078;49.872;6.188;2022-07-19T15:13:29;41.40;1.00
21832;DHT22;11078;49.872;6.188;2022-07-19T15:15:55;41.40;1.00
21832;DHT22;11078;49.872;6.188;2022-07-19T15:18:21;41.40;1.00
21832;DHT22;11078;49.872;6.188;2022-07-19T15:20:46;41.30;1.00
21832;DHT22;11078;49.872;6.188;2022-07-19T15:23:12;41.30;1.00
21832;DHT22;11078;49.872;6.188;2022-07-19T15:25:38;41.20;1.00
21832;DHT22;11078;49.872;6.188;2022-07-19T15:28:04;41.20;1.00
21832;DHT22;11078;49.872;6.188;2022-07-19T15:30:30;41.20;1.00
21832;DHT22;11078;49.872;6.188;2022-07-19T15:32:57;41.20;1.00
21832;DHT22;11078;49.872;6.188;2022-07-19T15:35:23;41.20;1.00
21832;DHT22;11078;49.872;6.188;2022-07-19T15:37:49;41.20;1.00
21832;DHT22;11078;49.872;6.188;2022-07-19T15:40:15;41.10;1.00
21832;DHT22;11078;49.872;6.188;2022-07-19T15:42:47;41.10;1.00
21832;DHT22;11078;49.872;6.188;2022-07-19T15:45:14;41.00;1.00
21832;DHT22;11078;49.872;6.188;2022-07-19T15:47:40;40.90;1.00
21832;DHT22;11078;49.872;6.188;2022-07-19T15:50:08;40.90;1.00
21832;DHT22;11078;49.872;6.188;2022-07-19T15:52:35;40.90;1.00